Philadelphia, Pennsylvania
Traffic Map
Current Weather Conditions
Philadelphia, Pennsylvania
Few Clouds
Few Clouds
74°
Feels Like: 74°
Wind Chill: 74° Ceiling: Unl
Heat Index: 74° Visibility: 10mi
Dew Point: 54° Wind: 8mph
Humidity: 50% Direction: 200° (SSW)
Pressure: 30.05in Gusts: 0mph
Raw Report DataKPHL 310054Z 20007KT 10SM FEW055 23/12 A3005 RMK AO2 SLP176 T02330122 $
Traffic Incident Summary
Active as of:
Severity:
Category:
InformationThere was an issue retrieving the traffic information for this location. Please try a different location or try again shortly.
Advertisements
Track Severe Weather on mobile